Time;durP1;ratioP1;P1;durP2;ratioP2;P2;SDS_P1;SDS_P2;PMS_P1;PMS_P2;Temp;Humidity;BMP_temperature;BMP_pressure;BME280_temperature;BME280_humidity;BME280_pressure;Samples;Min_cycle;Max_cycle;Signal;HPM_P1;HPM_P2
2022/04/22 00:00:53;;;;;;;20.70;12.03;;;12.20;74.50;;;;;;5013894;28;20329;-82
2022/04/22 00:03:22;;;;;;;19.70;12.30;;;12.20;74.70;;;;;;5019443;28;20207;-81
2022/04/22 00:05:50;;;;;;;21.17;11.47;;;12.20;75.10;;;;;;5022200;28;20231;-82
2022/04/22 00:08:21;;;;;;;17.73;11.33;;;12.20;75.10;;;;;;5013091;28;20280;-82
2022/04/22 00:13:36;;;;;;;17.30;10.87;;;12.20;75.30;;;;;;5015813;28;21326;-82
2022/04/22 00:16:07;;;;;;;19.57;11.07;;;12.20;75.40;;;;;;5021617;28;20312;-79
2022/04/22 00:18:36;;;;;;;19.70;11.43;;;12.20;75.50;;;;;;5019320;28;20199;-81
2022/04/22 00:21:06;;;;;;;18.50;11.77;;;12.20;75.60;;;;;;5019838;28;20204;-82
2022/04/22 00:23:34;;;;;;;18.77;11.67;;;12.20;75.60;;;;;;5018803;28;20203;-82
2022/04/22 00:26:03;;;;;;;19.57;11.83;;;12.20;75.60;;;;;;5019360;28;20226;-82
2022/04/22 00:28:31;;;;;;;16.50;10.67;;;12.20;75.80;;;;;;5019898;28;20203;-81
2022/04/22 00:31:00;;;;;;;19.80;11.00;;;12.20;75.80;;;;;;5021176;28;20207;-82
2022/04/22 00:33:30;;;;;;;18.57;10.93;;;12.20;75.90;;;;;;5018475;28;20238;-82
2022/04/22 00:35:59;;;;;;;17.27;10.87;;;12.20;75.80;;;;;;5019369;28;20219;-81
2022/04/22 00:38:28;;;;;;;18.30;11.13;;;12.20;75.70;;;;;;5016939;28;20408;-83
2022/04/22 00:40:57;;;;;;;18.23;10.90;;;12.20;75.50;;;;;;5020151;28;20699;-84
2022/04/22 00:43:40;;;;;;;16.03;10.47;;;12.20;75.40;;;;;;5017028;28;20299;-82
2022/04/22 00:46:11;;;;;;;17.70;11.10;;;12.30;75.30;;;;;;5016541;28;20605;-82
2022/04/22 00:48:41;;;;;;;18.67;10.43;;;12.30;75.30;;;;;;5018850;28;20203;-83
2022/04/22 00:51:13;;;;;;;19.60;11.37;;;12.30;75.30;;;;;;5018762;28;20550;-83
2022/04/22 00:53:43;;;;;;;17.77;11.83;;;12.30;75.30;;;;;;5017805;28;20188;-81
2022/04/22 00:56:14;;;;;;;18.20;11.03;;;12.40;75.30;;;;;;5018126;28;20637;-82
2022/04/22 00:58:44;;;;;;;18.60;10.93;;;12.40;75.30;;;;;;5019801;28;20199;-81
2022/04/22 01:01:14;;;;;;;16.93;10.90;;;12.40;75.40;;;;;;5014314;28;20554;-82
2022/04/22 01:09:47;;;;;;;19.10;11.07;;;12.40;75.20;;;;;;5017850;28;20214;-82
2022/04/22 01:12:09;;;;;;;20.43;11.90;;;12.40;75.00;;;;;;5026618;28;20196;-84
2022/04/22 01:14:42;;;;;;;15.97;9.90;;;12.50;75.00;;;;;;5020821;28;20562;-81
2022/04/22 01:17:11;;;;;;;18.73;11.43;;;12.50;74.80;;;;;;5027454;28;20663;-84
2022/04/22 01:19:42;;;;;;;19.27;11.43;;;12.50;74.80;;;;;;5024988;28;20202;-83
2022/04/22 01:22:13;;;;;;;23.63;11.70;;;12.50;74.70;;;;;;5027434;28;20192;-83
2022/04/22 01:24:43;;;;;;;16.77;10.70;;;12.50;74.70;;;;;;5024535;28;20207;-81
2022/04/22 01:27:12;;;;;;;18.67;10.63;;;12.50;74.70;;;;;;5017899;28;20683;-82
2022/04/22 01:29:43;;;;;;;16.57;10.60;;;12.60;74.70;;;;;;5021338;28;20944;-83
2022/04/22 01:32:14;;;;;;;17.80;10.80;;;12.60;74.90;;;;;;5025258;28;21043;-83
2022/04/22 01:34:43;;;;;;;18.70;11.13;;;12.60;75.10;;;;;;5021987;28;20192;-83
2022/04/22 01:37:13;;;;;;;17.37;11.07;;;12.60;75.10;;;;;;5025021;28;20208;-81
2022/04/22 01:39:45;;;;;;;22.40;12.50;;;12.60;75.30;;;;;;5026687;28;20195;-84
2022/04/22 01:42:14;;;;;;;20.80;12.40;;;12.60;75.20;;;;;;5024648;28;20287;-83
2022/04/22 01:44:43;;;;;;;20.17;12.37;;;12.50;75.30;;;;;;5020397;28;20204;-83
2022/04/22 01:47:14;;;;;;;21.80;13.37;;;12.50;75.20;;;;;;5024194;28;20627;-84
2022/04/22 01:49:45;;;;;;;21.33;12.20;;;12.50;75.30;;;;;;5027450;28;20203;-84
2022/04/22 01:52:15;;;;;;;22.57;13.00;;;12.60;75.50;;;;;;5025272;28;20274;-83
2022/04/22 01:54:44;;;;;;;25.03;14.77;;;12.50;75.50;;;;;;5021607;28;20236;-84
2022/04/22 01:57:15;;;;;;;21.50;13.10;;;12.60;75.60;;;;;;5022402;28;21991;-84
2022/04/22 01:59:46;;;;;;;23.97;13.93;;;12.50;75.50;;;;;;5017575;28;20192;-83
2022/04/22 02:02:15;;;;;;;23.80;13.67;;;12.50;75.50;;;;;;5023295;28;20309;-83
2022/04/22 02:04:47;;;;;;;26.43;13.37;;;12.50;75.60;;;;;;5020683;28;20191;-84
2022/04/22 02:07:18;;;;;;;22.80;13.80;;;12.50;75.60;;;;;;5022833;28;20290;-84
2022/04/22 02:09:46;;;;;;;22.37;13.97;;;12.60;75.80;;;;;;5019167;28;20198;-83
2022/04/22 02:12:15;;;;;;;21.80;14.20;;;12.50;75.70;;;;;;5023215;28;20302;-83
2022/04/22 02:14:44;;;;;;;23.77;14.63;;;12.50;75.70;;;;;;5020435;28;20629;-85
2022/04/22 02:17:12;;;;;;;24.23;14.10;;;12.50;75.70;;;;;;5022072;28;20292;-83
2022/04/22 02:19:41;;;;;;;23.83;14.77;;;12.50;75.70;;;;;;5021534;28;20195;-81
2022/04/22 02:22:10;;;;;;;23.40;13.27;;;12.50;75.70;;;;;;5022696;28;20911;-83
2022/04/22 02:24:40;;;;;;;22.10;13.93;;;12.50;75.80;;;;;;5016382;28;20223;-82
2022/04/22 02:29:56;;;;;;;23.67;14.13;;;12.50;76.00;;;;;;5020993;28;20222;-82
2022/04/22 02:32:24;;;;;;;27.20;15.13;;;12.50;76.00;;;;;;5024090;28;20290;-81
2022/04/22 02:34:53;;;;;;;23.50;14.50;;;12.50;76.00;;;;;;5019515;28;20242;-83
2022/04/22 02:37:22;;;;;;;23.77;14.43;;;12.50;76.00;;;;;;5025538;28;20763;-82
2022/04/22 02:39:52;;;;;;;21.27;14.20;;;12.50;76.10;;;;;;5018967;28;20831;-82
2022/04/22 02:47:58;;;;;;;22.80;15.13;;;12.50;76.20;;;;;;5025057;28;20207;-82
2022/04/22 02:50:31;;;;;;;25.77;14.53;;;12.50;76.10;;;;;;4973784;28;20214;-84
2022/04/22 02:52:59;;;;;;;25.30;15.90;;;12.50;76.10;;;;;;5020128;28;20671;-83
2022/04/22 02:55:36;;;;;;;33.07;19.53;;;12.50;76.00;;;;;;5017926;28;20791;-84
2022/04/22 02:58:05;;;;;;;29.53;18.87;;;12.50;76.10;;;;;;5022775;28;20249;-85
2022/04/22 03:00:36;;;;;;;24.40;15.60;;;12.60;76.20;;;;;;5018402;28;20505;-83
2022/04/22 03:03:06;;;;;;;32.27;17.13;;;12.60;76.20;;;;;;5020064;28;20207;-84
2022/04/22 03:05:38;;;;;;;26.10;15.37;;;12.60;76.30;;;;;;5016502;28;20236;-83
2022/04/22 03:08:08;;;;;;;26.93;16.23;;;12.60;76.30;;;;;;5023458;28;20203;-83
2022/04/22 03:10:40;;;;;;;27.63;16.30;;;12.60;76.30;;;;;;5022214;28;20603;-83
2022/04/22 03:13:09;;;;;;;34.97;24.20;;;12.60;76.20;;;;;;4969106;28;20338;-82
2022/04/22 03:15:41;;;;;;;44.27;28.57;;;12.60;76.30;;;;;;5023893;28;20196;-83
2022/04/22 03:18:10;;;;;;;44.47;30.10;;;12.60;76.20;;;;;;5021342;28;20258;-83
2022/04/22 03:20:39;;;;;;;39.30;28.23;;;12.60;76.20;;;;;;4990075;28;20207;-84
2022/04/22 03:23:11;;;;;;;34.30;23.27;;;12.60;76.20;;;;;;5021517;28;20214;-83
2022/04/22 03:25:41;;;;;;;30.03;20.33;;;12.60;76.20;;;;;;5029226;28;20212;-83
2022/04/22 03:28:11;;;;;;;27.40;19.33;;;12.70;76.10;;;;;;5021071;28;20196;-84
2022/04/22 03:30:41;;;;;;;23.87;16.57;;;12.70;76.00;;;;;;5022162;28;20239;-84
2022/04/22 03:33:17;;;;;;;28.77;17.03;;;12.70;76.00;;;;;;5021575;28;20222;-84
2022/04/22 03:35:51;;;;;;;23.83;15.80;;;12.70;75.90;;;;;;5021424;28;20188;-83
2022/04/22 03:38:28;;;;;;;25.47;15.63;;;12.60;75.80;;;;;;5019278;28;20192;-83
2022/04/22 03:41:04;;;;;;;27.83;15.93;;;12.70;75.80;;;;;;5020955;28;20195;-83
2022/04/22 03:43:41;;;;;;;25.70;14.97;;;12.70;75.90;;;;;;4977908;28;20195;-83
2022/04/22 03:46:10;;;;;;;29.80;18.53;;;12.70;75.90;;;;;;5018240;28;21069;-84
2022/04/22 03:48:55;;;;;;;30.40;16.43;;;12.70;76.60;;;;;;5024301;28;20441;-85
2022/04/22 03:51:28;;;;;;;28.13;16.33;;;12.60;76.60;;;;;;5026198;28;20219;-84
2022/04/22 03:54:01;;;;;;;28.53;17.93;;;12.60;76.60;;;;;;5026616;28;20196;-84
2022/04/22 03:59:26;;;;;;;31.70;16.60;;;12.60;77.00;;;;;;5029363;28;20271;-82
2022/04/22 04:01:57;;;;;;;27.40;17.27;;;12.60;76.80;;;;;;5026683;28;20286;-82
2022/04/22 04:04:40;;;;;;;24.77;15.63;;;12.60;76.60;;;;;;5022695;28;20227;-83
2022/04/22 04:07:10;;;;;;;27.83;16.10;;;12.70;76.70;;;;;;5026184;28;20673;-83
2022/04/22 04:18:40;;;;;;;;;;;;;;;;;;;;;
2022/04/22 04:24:22;;;;;;;26.33;15.17;;;12.80;76.50;;;;;;5027587;28;20202;-82
2022/04/22 04:26:53;;;;;;;28.13;16.10;;;12.80;76.50;;;;;;5035991;28;20208;-82
2022/04/22 04:29:27;;;;;;;25.13;14.53;;;12.80;76.30;;;;;;5035846;28;20196;-83
2022/04/22 04:31:57;;;;;;;26.63;15.60;;;12.80;76.20;;;;;;5035646;28;20753;-82
2022/04/22 04:34:37;;;;;;;26.03;15.90;;;12.80;76.30;;;;;;5036114;28;20188;-83
2022/04/22 04:37:09;;;;;;;25.00;15.40;;;12.90;76.30;;;;;;5033866;28;20269;-83
2022/04/22 04:39:38;;;;;;;26.10;16.23;;;12.90;76.20;;;;;;5030919;28;20191;-83
2022/04/22 04:42:08;;;;;;;24.43;14.77;;;12.90;76.20;;;;;;5034892;28;20223;-82
2022/04/22 04:44:39;;;;;;;24.50;15.20;;;13.00;76.40;;;;;;5035092;28;20188;-83
2022/04/22 04:47:08;;;;;;;26.57;14.13;;;13.00;76.60;;;;;;5033465;28;20724;-82
2022/04/22 04:49:37;;;;;;;22.60;14.20;;;13.00;76.70;;;;;;5033823;28;20199;-82
2022/04/22 04:52:10;;;;;;;21.83;13.77;;;13.00;76.70;;;;;;5036115;28;20227;-84
2022/04/22 04:54:44;;;;;;;23.30;13.97;;;13.10;76.80;;;;;;5029297;28;20203;-84
2022/04/22 04:57:13;;;;;;;21.87;13.00;;;13.10;76.80;;;;;;5029921;28;20196;-83
2022/04/22 04:59:43;;;;;;;20.90;12.20;;;13.10;76.80;;;;;;5034398;28;20226;-83
2022/04/22 05:02:13;;;;;;;16.90;11.73;;;13.20;76.80;;;;;;5036418;28;20195;-84
2022/04/22 05:04:51;;;;;;;18.60;11.73;;;13.20;76.60;;;;;;5030986;28;20243;-84
2022/04/22 05:07:22;;;;;;;21.53;12.27;;;13.30;76.60;;;;;;5031693;28;20290;-84
2022/04/22 05:09:57;;;;;;;23.17;12.43;;;13.30;76.40;;;;;;5025329;28;20207;-83
2022/04/22 05:12:34;;;;;;;19.07;12.37;;;13.40;76.40;;;;;;5032057;28;20219;-83
2022/04/22 05:15:19;;;;;;;21.10;12.63;;;13.40;76.20;;;;;;5024805;28;20219;-83
2022/04/22 05:18:02;;;;;;;18.63;11.40;;;13.50;76.10;;;;;;5030280;28;20254;-84
2022/04/22 05:20:34;;;;;;;20.07;11.03;;;13.50;75.80;;;;;;5029506;28;20283;-81
2022/04/22 05:23:06;;;;;;;17.07;11.07;;;13.60;75.70;;;;;;5042184;28;20188;-82
2022/04/22 05:26:04;;;;;;;;;;;;;;;;;;;;;
2022/04/22 05:28:41;;;;;;;20.17;11.37;;;13.60;75.20;;;;;;5043458;28;20215;-81
2022/04/22 05:34:46;;;;;;;17.47;11.37;;;13.60;75.00;;;;;;5031783;28;20215;-85
2022/04/22 05:38:04;;;;;;;17.57;11.47;;;13.70;75.00;;;;;;5025416;28;20283;-85
2022/04/22 05:40:39;;;;;;;19.27;12.37;;;13.70;75.00;;;;;;5025835;28;20200;-83
2022/04/22 05:43:39;;;;;;;22.97;12.53;;;13.70;74.70;;;;;;5030806;28;20194;-85
2022/04/22 05:49:49;;;;;;;18.97;12.07;;;13.80;74.50;;;;;;5015148;28;20370;-83
2022/04/22 05:52:28;;;;;;;20.30;12.53;;;13.80;74.50;;;;;;5019140;28;20371;-84
2022/04/22 05:55:02;;;;;;;21.07;11.87;;;13.90;74.50;;;;;;5023415;28;20456;-83
2022/04/22 05:57:40;;;;;;;19.97;12.53;;;13.90;74.50;;;;;;5027310;28;20259;-83
2022/04/22 06:00:35;;;;;;;18.67;12.70;;;14.00;74.60;;;;;;4955158;28;20206;-85
2022/04/22 06:03:25;;;;;;;17.53;12.43;;;14.00;74.60;;;;;;4948530;28;20211;-82
2022/04/22 06:12:17;;;;;;;18.57;12.17;;;14.10;74.30;;;;;;4949300;28;20515;-82
2022/04/22 06:14:54;;;;;;;17.42;11.98;;;14.20;74.20;;;;;;4950495;28;20398;-86
2022/04/22 06:17:24;;;;;;;18.57;11.40;;;14.20;74.10;;;;;;4949984;28;20202;-84
2022/04/22 06:20:16;;;;;;;18.83;11.07;;;14.20;74.00;;;;;;4949302;28;20206;-82
2022/04/22 06:23:01;;;;;;;17.90;10.80;;;14.30;74.00;;;;;;4950323;28;21745;-84
2022/04/22 06:25:40;;;;;;;14.47;10.37;;;14.30;73.60;;;;;;4956628;28;20210;-84
2022/04/22 06:28:15;;;;;;;16.47;10.37;;;14.30;73.20;;;;;;4958177;28;20218;-83
2022/04/22 06:30:53;;;;;;;16.33;9.93;;;14.40;73.30;;;;;;4951837;28;20360;-83
2022/04/22 06:33:26;;;;;;;14.27;9.37;;;14.40;72.80;;;;;;4957024;28;20285;-81
2022/04/22 06:36:01;;;;;;;20.07;10.73;;;14.40;72.70;;;;;;4960141;28;20211;-82
2022/04/22 06:39:01;;;;;;;14.63;10.70;;;14.50;72.70;;;;;;5022320;28;20230;-83
2022/04/22 06:47:42;;;;;;;17.20;10.20;;;14.60;72.50;;;;;;5030816;28;20220;-81
2022/04/22 06:50:19;;;;;;;17.40;10.97;;;14.60;72.50;;;;;;5027242;28;20215;-82
2022/04/22 06:52:53;;;;;;;20.17;12.67;;;14.70;72.60;;;;;;5031575;28;20191;-84
2022/04/22 06:55:31;;;;;;;20.00;11.07;;;14.70;72.70;;;;;;5031501;28;20288;-82
2022/04/22 06:58:09;;;;;;;17.10;12.20;;;14.70;73.60;;;;;;5025916;28;20226;-82
2022/04/22 07:00:50;;;;;;;17.00;11.10;;;14.70;73.10;;;;;;5026396;28;20342;-82
2022/04/22 07:03:20;;;;;;;17.90;12.43;;;14.70;72.80;;;;;;5022411;28;20202;-80
2022/04/22 07:05:52;;;;;;;18.70;12.37;;;14.80;73.10;;;;;;5018942;28;20879;-81
2022/04/22 07:08:23;;;;;;;16.70;11.70;;;14.80;73.30;;;;;;5022412;28;20208;-81
2022/04/22 07:10:53;;;;;;;19.90;11.60;;;14.80;73.50;;;;;;5021418;28;20214;-82
2022/04/22 07:13:22;;;;;;;21.20;12.30;;;14.80;73.60;;;;;;5018622;28;20200;-81
2022/04/22 07:16:18;;;;;;;17.60;12.50;;;14.80;73.70;;;;;;5026566;28;20211;-81
2022/04/22 07:18:51;;;;;;;19.30;12.97;;;14.80;74.00;;;;;;5021195;28;20578;-78
2022/04/22 07:21:21;;;;;;;21.13;13.77;;;14.80;74.10;;;;;;5016090;28;20321;-78
2022/04/22 07:23:50;;;;;;;19.30;12.77;;;14.80;74.50;;;;;;5024097;28;20214;-77
2022/04/22 07:26:22;;;;;;;22.60;14.17;;;14.80;74.70;;;;;;5020711;28;20198;-81
2022/04/22 07:28:52;;;;;;;19.97;13.53;;;14.80;75.10;;;;;;5027226;28;20203;-80
2022/04/22 07:35:35;;;;;;;29.90;16.33;;;14.80;76.30;;;;;;5028625;28;20721;-81
2022/04/22 07:38:06;;;;;;;25.00;15.77;;;14.80;76.70;;;;;;5029248;28;20217;-79
2022/04/22 07:40:37;;;;;;;26.27;15.63;;;14.80;78.00;;;;;;5393953;22;20232;-77
2022/04/22 07:48:42;;;;;;;28.17;15.90;;;14.80;77.90;;;;;;4984942;28;20212;-78
2022/04/22 07:51:10;;;;;;;27.77;16.60;;;14.80;77.90;;;;;;5002973;28;20208;-78
2022/04/22 07:53:39;;;;;;;21.70;14.80;;;14.80;78.10;;;;;;5002938;28;20200;-79
2022/04/22 07:56:08;;;;;;;23.30;15.10;;;14.80;79.40;;;;;;5001075;28;20703;-80
2022/04/22 07:58:38;;;;;;;27.27;15.13;;;14.80;78.60;;;;;;5003564;28;20192;-78
2022/04/22 08:01:06;;;;;;;25.87;14.63;;;14.80;79.40;;;;;;5003132;28;20192;-77
2022/04/22 08:03:36;;;;;;;27.47;14.67;;;14.70;79.50;;;;;;5002206;28;20250;-81
2022/04/22 08:06:06;;;;;;;25.63;14.77;;;14.80;79.60;;;;;;5001218;28;20211;-77
2022/04/22 08:08:34;;;;;;;23.13;14.00;;;14.70;79.40;;;;;;5002290;28;20929;-79
2022/04/22 08:11:02;;;;;;;36.17;20.05;;;14.70;79.40;;;;;;5002258;28;20435;-79
2022/04/22 08:13:32;;;;;;;22.10;13.53;;;14.80;80.10;;;;;;5003489;28;20211;-79
2022/04/22 08:16:02;;;;;;;19.83;12.77;;;14.80;80.10;;;;;;5002815;28;20274;-78
2022/04/22 08:18:31;;;;;;;16.83;11.57;;;14.80;80.20;;;;;;5002150;28;20200;-77
2022/04/22 08:21:00;;;;;;;23.13;12.57;;;14.80;80.10;;;;;;5002794;28;20739;-79
2022/04/22 08:23:28;;;;;;;20.47;11.90;;;14.80;80.20;;;;;;5002994;28;20207;-79
2022/04/22 08:25:57;;;;;;;19.03;11.80;;;14.80;80.20;;;;;;5001537;28;20196;-77
2022/04/22 08:28:25;;;;;;;23.27;12.83;;;14.80;80.00;;;;;;5003060;28;20220;-80
2022/04/22 08:30:54;;;;;;;19.27;11.60;;;14.80;80.00;;;;;;4999655;28;20206;-79
2022/04/22 08:33:24;;;;;;;16.40;11.20;;;14.80;80.20;;;;;;5002328;28;20219;-78
2022/04/22 08:35:52;;;;;;;17.30;10.37;;;14.90;80.00;;;;;;4999204;28;20701;-79
2022/04/22 08:38:23;;;;;;;15.87;10.20;;;14.90;80.10;;;;;;5000242;28;20196;-80
2022/04/22 08:40:53;;;;;;;16.00;10.30;;;15.00;80.10;;;;;;4999391;28;20234;-77
2022/04/22 08:43:23;;;;;;;14.33;10.37;;;15.00;80.00;;;;;;5003646;28;20184;-78
2022/04/22 08:45:51;;;;;;;12.67;8.90;;;15.10;80.10;;;;;;5002105;28;20192;-78
2022/04/22 08:51:10;;;;;;;12.70;7.70;;;15.20;80.20;;;;;;5002490;28;20227;-80
2022/04/22 08:53:44;;;;;;;11.17;7.87;;;15.30;80.20;;;;;;5001365;28;20195;-80
2022/04/22 08:56:13;;;;;;;13.70;9.47;;;15.40;80.10;;;;;;5000601;28;20196;-80
2022/04/22 08:58:42;;;;;;;14.17;8.93;;;15.50;79.80;;;;;;5000300;28;20189;-81
2022/04/22 09:01:11;;;;;;;13.43;8.90;;;15.60;79.70;;;;;;5000902;28;20197;-80
2022/04/22 09:03:39;;;;;;;14.07;8.47;;;15.80;79.60;;;;;;5001587;28;20258;-80
2022/04/22 09:06:10;;;;;;;14.47;8.87;;;15.90;79.40;;;;;;4998808;28;20706;-80
2022/04/22 09:08:39;;;;;;;14.23;8.90;;;15.90;79.10;;;;;;5001130;28;20673;-81
2022/04/22 09:11:07;;;;;;;12.77;8.43;;;16.00;79.10;;;;;;5001414;28;20192;-81
2022/04/22 09:13:36;;;;;;;13.13;8.00;;;16.20;79.00;;;;;;4999973;28;20230;-80
2022/04/22 09:16:05;;;;;;;12.83;8.33;;;16.30;78.70;;;;;;4999580;28;20227;-80
2022/04/22 09:18:39;;;;;;;12.80;8.27;;;16.30;78.10;;;;;;4998095;28;20219;-80
2022/04/22 09:21:16;;;;;;;12.43;7.93;;;16.30;77.60;;;;;;5001978;28;20187;-80
2022/04/22 09:23:46;;;;;;;13.83;8.73;;;16.30;77.20;;;;;;5001074;28;20192;-81
2022/04/22 09:26:22;;;;;;;12.30;8.57;;;16.40;77.40;;;;;;5001727;28;20888;-79
2022/04/22 09:28:57;;;;;;;13.67;9.23;;;16.50;77.70;;;;;;4998722;28;20304;-81
2022/04/22 09:31:27;;;;;;;18.30;10.43;;;16.70;77.80;;;;;;5002218;28;20210;-79
2022/04/22 09:33:57;;;;;;;17.83;11.23;;;16.80;77.90;;;;;;5000375;28;20204;-81
2022/04/22 09:44:57;;;;;;;26.80;16.17;;;17.20;78.20;;;;;;5004373;28;20196;-76
2022/04/22 09:47:27;;;;;;;22.00;13.80;;;17.20;77.90;;;;;;5005450;28;20278;-74
2022/04/22 09:49:56;;;;;;;20.03;12.40;;;17.30;77.60;;;;;;5004006;28;20705;-75
2022/04/22 09:52:30;;;;;;;17.63;12.70;;;17.30;76.90;;;;;;5004197;28;20204;-76
2022/04/22 09:55:01;;;;;;;19.13;11.87;;;17.40;77.00;;;;;;5002175;28;20189;-75
2022/04/22 09:57:52;;;;;;;22.23;13.30;;;17.40;77.00;;;;;;5003366;28;20196;-75
2022/04/22 10:00:21;;;;;;;18.83;12.40;;;17.50;77.20;;;;;;5003529;28;20527;-77
2022/04/22 10:02:52;;;;;;;21.10;13.53;;;17.50;76.40;;;;;;5003194;28;20196;-75
2022/04/22 10:05:21;;;;;;;20.43;13.10;;;17.50;76.40;;;;;;5004290;28;20287;-74
2022/04/22 10:07:53;;;;;;;18.73;12.57;;;17.50;76.40;;;;;;5004012;28;20199;-76
2022/04/22 10:10:26;;;;;;;23.40;14.63;;;17.50;76.60;;;;;;5002784;28;20226;-75
2022/04/22 10:12:58;;;;;;;25.97;14.93;;;17.60;76.60;;;;;;5003143;28;20199;-76
2022/04/22 10:15:29;;;;;;;20.63;13.80;;;17.60;77.00;;;;;;5002616;28;20192;-74
2022/04/22 10:17:58;;;;;;;18.47;14.30;;;17.70;78.10;;;;;;5002322;28;20755;-74
2022/04/22 10:20:29;;;;;;;19.83;12.67;;;17.80;77.10;;;;;;5004295;28;20708;-75
2022/04/22 10:23:00;;;;;;;21.00;12.97;;;17.70;76.70;;;;;;5004598;28;20640;-75
2022/04/22 10:25:30;;;;;;;19.80;13.23;;;17.90;76.80;;;;;;5000244;28;20210;-74
2022/04/22 10:28:01;;;;;;;18.70;12.37;;;17.90;76.60;;;;;;5002096;28;20192;-75
2022/04/22 10:30:30;;;;;;;23.53;13.80;;;18.10;76.80;;;;;;5002509;28;20676;-75
2022/04/22 10:32:59;;;;;;;20.43;13.37;;;18.20;76.60;;;;;;5002822;28;20205;-73
2022/04/22 10:35:28;;;;;;;17.20;12.70;;;18.30;76.40;;;;;;5003307;28;20196;-73
2022/04/22 10:37:56;;;;;;;18.20;12.73;;;18.30;75.90;;;;;;5003939;28;20569;-75
2022/04/22 10:40:27;;;;;;;17.20;12.60;;;18.30;75.80;;;;;;5001256;28;20202;-76
2022/04/22 10:43:01;;;;;;;17.50;12.83;;;18.40;75.80;;;;;;5003446;28;20192;-75
2022/04/22 10:48:24;;;;;;;18.67;12.27;;;18.50;75.20;;;;;;4998579;28;20254;-76
2022/04/22 10:50:59;;;;;;;23.37;12.93;;;18.60;75.30;;;;;;5002454;28;20224;-74
2022/04/22 10:53:29;;;;;;;18.67;12.17;;;18.60;74.70;;;;;;5002473;28;21241;-73
2022/04/22 10:56:33;;;;;;;19.17;12.90;;;18.70;74.90;;;;;;5003347;28;20798;-75
2022/04/22 10:59:28;;;;;;;18.83;11.80;;;18.80;74.60;;;;;;5002158;28;20201;-72
2022/04/22 11:01:56;;;;;;;20.10;11.97;;;18.90;74.10;;;;;;5003278;28;20188;-73
2022/04/22 11:04:28;;;;;;;17.30;11.73;;;19.00;74.70;;;;;;5002973;28;20283;-74
2022/04/22 11:06:58;;;;;;;20.27;11.27;;;19.10;73.80;;;;;;5002692;28;20896;-73
2022/04/22 11:09:27;;;;;;;14.87;10.23;;;19.20;73.90;;;;;;5001676;28;22168;-75
2022/04/22 11:11:58;;;;;;;16.07;10.50;;;19.30;73.80;;;;;;5002835;28;20200;-74
2022/04/22 11:14:28;;;;;;;18.67;11.57;;;19.40;73.30;;;;;;5003628;28;20191;-75
2022/04/22 11:17:17;;;;;;;18.47;10.77;;;19.50;73.10;;;;;;4999869;28;20721;-74
2022/04/22 11:19:59;;;;;;;14.37;9.73;;;19.50;72.90;;;;;;5002289;28;21025;-75
2022/04/22 11:22:56;;;;;;;11.80;8.50;;;19.60;72.70;;;;;;5003643;28;20202;-75
2022/04/22 11:25:26;;;;;;;13.10;8.97;;;19.70;72.40;;;;;;5002541;28;20196;-74
2022/04/22 11:27:57;;;;;;;12.40;8.37;;;19.80;71.90;;;;;;5001156;28;20200;-74
2022/04/22 11:30:27;;;;;;;12.90;8.43;;;19.90;71.70;;;;;;5003648;28;21208;-74
2022/04/22 11:33:03;;;;;;;16.90;8.33;;;20.00;71.60;;;;;;5003495;28;20191;-76
2022/04/22 11:35:35;;;;;;;12.87;8.50;;;20.10;70.70;;;;;;5000005;28;20199;-74
2022/04/22 11:38:05;;;;;;;12.40;8.53;;;20.20;70.40;;;;;;5002959;28;20236;-75
2022/04/22 11:40:35;;;;;;;12.13;8.07;;;20.30;70.30;;;;;;5003181;28;20191;-75
2022/04/22 11:43:09;;;;;;;15.77;8.30;;;20.30;70.40;;;;;;5003109;28;20205;-73
2022/04/22 11:45:40;;;;;;;18.63;8.83;;;20.30;70.30;;;;;;5000700;28;20238;-74
2022/04/22 11:48:09;;;;;;;13.10;9.00;;;20.20;70.10;;;;;;5002243;28;20234;-73
2022/04/22 11:50:39;;;;;;;12.40;8.13;;;20.30;70.00;;;;;;5001670;28;20238;-73
2022/04/22 11:53:14;;;;;;;10.90;8.23;;;20.20;70.10;;;;;;5003250;28;20685;-74
2022/04/22 11:55:43;;;;;;;13.40;8.23;;;20.30;70.00;;;;;;5001926;28;20195;-73
2022/04/22 11:58:14;;;;;;;14.82;8.65;;;20.30;69.90;;;;;;5001741;28;20448;-73
2022/04/22 12:06:16;;;;;;;15.83;7.50;;;20.30;70.20;;;;;;5001657;28;20269;-74
2022/04/22 12:08:52;;;;;;;12.20;7.50;;;20.30;70.00;;;;;;5000651;28;20188;-74
2022/04/22 12:11:23;;;;;;;12.40;7.13;;;20.40;69.90;;;;;;5001482;28;20245;-74
2022/04/22 12:13:54;;;;;;;11.97;7.37;;;20.50;69.60;;;;;;5001367;28;20194;-75
2022/04/22 12:16:24;;;;;;;10.45;6.95;;;20.60;69.70;;;;;;5003062;28;20200;-74
2022/04/22 12:18:54;;;;;;;11.70;6.50;;;20.70;69.70;;;;;;5001198;28;20263;-75
2022/04/22 12:21:23;;;;;;;14.87;6.90;;;20.80;69.70;;;;;;5002123;28;20207;-73
2022/04/22 12:23:58;;;;;;;9.18;6.43;;;20.90;68.90;;;;;;5002843;28;20204;-74
2022/04/22 12:26:27;;;;;;;9.60;5.93;;;21.00;69.10;;;;;;5002232;28;20192;-74
2022/04/22 12:28:59;;;;;;;12.63;6.57;;;21.00;68.90;;;;;;5001269;28;22056;-74
2022/04/22 12:31:30;;;;;;;9.02;6.25;;;21.00;68.30;;;;;;4999416;28;20304;-74
2022/04/22 12:34:00;;;;;;;9.32;5.75;;;21.10;68.30;;;;;;5000801;28;20207;-74
2022/04/22 12:36:30;;;;;;;9.95;5.93;;;21.10;68.30;;;;;;5002143;28;20223;-73
2022/04/22 12:38:59;;;;;;;9.63;5.45;;;21.10;68.60;;;;;;5000968;28;20203;-74
2022/04/22 12:41:27;;;;;;;10.10;5.88;;;21.20;68.50;;;;;;5002428;28;20224;-74
2022/04/22 12:44:00;;;;;;;9.13;5.75;;;21.20;68.60;;;;;;5001352;28;20192;-75
2022/04/22 12:52:15;;;;;;;8.75;5.88;;;21.50;68.60;;;;;;5001849;28;20207;-74
2022/04/22 12:54:46;;;;;;;9.95;5.10;;;21.50;68.40;;;;;;5002139;28;20200;-74
2022/04/22 12:57:20;;;;;;;9.07;5.68;;;21.60;68.30;;;;;;5001688;28;20191;-76
2022/04/22 12:59:53;;;;;;;10.65;5.53;;;21.60;68.20;;;;;;5001129;28;20206;-74
2022/04/22 13:02:28;;;;;;;11.85;6.10;;;21.70;68.20;;;;;;5003627;28;20199;-74
2022/04/22 13:04:59;;;;;;;8.55;5.30;;;21.70;68.00;;;;;;5001113;28;20230;-76
2022/04/22 13:07:40;;;;;;;9.60;6.07;;;21.60;68.00;;;;;;4998964;28;20211;-75
2022/04/22 13:10:09;;;;;;;10.68;5.78;;;21.60;68.00;;;;;;5002759;28;20561;-76
2022/04/22 13:12:39;;;;;;;8.05;5.60;;;21.50;67.80;;;;;;5004049;28;20196;-76
2022/04/22 13:15:12;;;;;;;10.27;6.30;;;21.50;68.00;;;;;;5004528;28;21131;-76
2022/04/22 13:17:43;;;;;;;11.40;6.38;;;21.50;68.10;;;;;;5003735;28;20826;-76
2022/04/22 13:20:13;;;;;;;11.52;6.65;;;21.50;68.20;;;;;;5004677;28;20183;-75
2022/04/22 13:22:42;;;;;;;14.25;5.30;;;21.60;68.30;;;;;;5005342;28;20199;-77
2022/04/22 13:25:12;;;;;;;7.82;4.55;;;21.70;68.40;;;;;;5005305;28;20715;-76
2022/04/22 13:27:41;;;;;;;9.05;4.15;;;21.80;68.30;;;;;;5004108;28;20554;-76
2022/04/22 13:30:13;;;;;;;12.68;4.75;;;21.80;68.10;;;;;;5005219;28;20196;-73
2022/04/22 13:32:41;;;;;;;7.03;3.72;;;22.00;68.00;;;;;;5000431;28;20211;-78
2022/04/22 13:35:14;;;;;;;6.88;4.15;;;22.00;68.00;;;;;;5005078;28;20203;-77
2022/04/22 13:37:43;;;;;;;7.82;3.75;;;22.10;67.50;;;;;;5004931;28;20192;-75
2022/04/22 13:40:13;;;;;;;6.28;3.20;;;22.20;67.80;;;;;;5004510;28;20211;-76
2022/04/22 13:42:41;;;;;;;14.57;5.18;;;22.30;67.70;;;;;;5001720;28;20311;-77
2022/04/22 13:53:29;;;;;;;5.30;3.67;;;22.30;66.60;;;;;;5005546;28;20638;-75
2022/04/22 13:55:57;;;;;;;8.25;3.15;;;22.30;66.50;;;;;;5001449;28;20204;-77
2022/04/22 13:58:26;;;;;;;10.02;3.08;;;22.40;66.70;;;;;;5005167;28;20203;-76
2022/04/22 14:00:56;;;;;;;9.10;3.03;;;22.60;66.30;;;;;;5005884;28;21296;-75
2022/04/22 14:03:24;;;;;;;6.18;2.60;;;22.60;66.40;;;;;;5002296;28;20471;-75
2022/04/22 14:05:53;;;;;;;8.82;3.42;;;22.50;66.20;;;;;;5003922;28;20665;-77
2022/04/22 14:08:21;;;;;;;5.68;2.97;;;22.40;66.70;;;;;;5002509;28;20313;-76
2022/04/22 14:10:49;;;;;;;8.63;3.30;;;22.30;66.80;;;;;;5004003;28;20199;-75
2022/04/22 14:13:18;;;;;;;5.13;2.63;;;22.20;66.90;;;;;;5003899;28;20196;-75
2022/04/22 14:15:47;;;;;;;4.70;2.83;;;22.10;67.20;;;;;;5004613;28;20858;-73
2022/04/22 14:18:17;;;;;;;8.05;3.10;;;22.00;67.60;;;;;;5001560;28;20197;-74
2022/04/22 14:20:45;;;;;;;7.57;3.10;;;21.90;67.70;;;;;;5002681;28;20196;-74
2022/04/22 14:23:14;;;;;;;7.60;2.63;;;21.90;68.00;;;;;;5002640;28;20208;-74
2022/04/22 14:25:42;;;;;;;6.03;3.30;;;21.90;68.10;;;;;;5003936;28;20192;-73
2022/04/22 14:28:10;;;;;;;6.22;3.70;;;21.90;68.60;;;;;;5003884;28;20195;-73
2022/04/22 14:30:39;;;;;;;9.10;3.70;;;22.00;68.30;;;;;;5002697;28;20204;-74
2022/04/22 14:33:07;;;;;;;7.45;3.72;;;22.00;68.40;;;;;;5003103;28;20866;-73